Time;durP1;ratioP1;P1;durP2;ratioP2;P2;SDS_P1;SDS_P2;PMS_P1;PMS_P2;Temp;Humidity;BMP_temperature;BMP_pressure;BME280_temperature;BME280_humidity;BME280_pressure;Samples;Min_cycle;Max_cycle;Signal;HPM_P1;HPM_P2
2021/09/15 00:01:07;;;;;;;1.48;0.30;;;27.20;61.10;;;;;;5060979;28;20029;-57
2021/09/15 00:03:36;;;;;;;1.48;0.30;;;27.20;61.00;;;;;;5052094;28;20072;-57
2021/09/15 00:06:04;;;;;;;1.55;0.52;;;27.20;61.00;;;;;;5052446;28;20037;-57
2021/09/15 00:08:32;;;;;;;0.55;0.30;;;27.30;61.10;;;;;;5050776;28;20059;-59
2021/09/15 00:11:00;;;;;;;2.28;1.38;;;27.20;61.00;;;;;;5061319;28;20051;-57
2021/09/15 00:13:27;;;;;;;1.48;0.55;;;27.20;61.00;;;;;;5060822;28;20416;-58
2021/09/15 00:15:54;;;;;;;0.47;0.45;;;27.20;61.10;;;;;;5061103;28;20041;-57
2021/09/15 00:18:21;;;;;;;1.40;0.45;;;27.20;61.00;;;;;;5064357;28;20110;-58
2021/09/15 00:20:48;;;;;;;0.20;0.20;;;27.20;61.00;;;;;;5060825;28;20041;-57
2021/09/15 00:23:15;;;;;;;2.25;0.40;;;27.20;61.10;;;;;;5063043;28;20052;-57
2021/09/15 00:25:44;;;;;;;1.85;0.20;;;27.10;61.00;;;;;;5061903;28;20519;-56
2021/09/15 00:28:11;;;;;;;0.45;0.30;;;27.20;61.10;;;;;;5061370;28;20409;-58
2021/09/15 00:30:38;;;;;;;2.15;0.55;;;27.10;61.00;;;;;;5060847;28;20049;-57
2021/09/15 00:33:06;;;;;;;0.50;0.28;;;27.10;61.00;;;;;;5066417;28;20075;-57
2021/09/15 00:35:33;;;;;;;0.20;0.20;;;27.20;61.00;;;;;;5064301;28;20048;-57
2021/09/15 00:38:05;;;;;;;1.45;0.28;;;27.10;61.00;;;;;;5061608;28;20127;-58
2021/09/15 00:40:33;;;;;;;0.95;0.30;;;27.10;61.50;;;;;;5061490;28;20059;-57
2021/09/15 00:43:02;;;;;;;0.20;0.20;;;27.10;61.00;;;;;;5061355;28;20044;-58
2021/09/15 00:45:29;;;;;;;0.30;0.30;;;27.10;61.00;;;;;;5060945;28;20483;-57
2021/09/15 00:47:56;;;;;;;2.38;0.77;;;27.10;61.00;;;;;;5063431;28;20104;-57
2021/09/15 00:50:24;;;;;;;0.82;0.20;;;27.10;61.00;;;;;;5063177;28;20105;-57
2021/09/15 00:52:51;;;;;;;0.38;0.20;;;27.10;61.00;;;;;;5061377;28;20053;-58
2021/09/15 00:55:19;;;;;;;0.65;0.40;;;27.10;61.00;;;;;;5060779;28;20528;-57
2021/09/15 00:57:47;;;;;;;1.55;0.20;;;27.10;61.00;;;;;;5046802;28;20076;-57
2021/09/15 01:00:17;;;;;;;0.57;0.32;;;27.10;61.00;;;;;;5065036;28;20048;-60
2021/09/15 01:02:46;;;;;;;1.17;0.22;;;27.10;61.00;;;;;;5063301;28;20036;-57
2021/09/15 01:05:15;;;;;;;0.30;0.20;;;27.00;60.90;;;;;;5061866;28;20404;-57
2021/09/15 01:07:47;;;;;;;1.35;0.20;;;27.10;61.00;;;;;;5057678;28;20521;-57
2021/09/15 01:10:17;;;;;;;0.28;0.22;;;27.10;61.00;;;;;;5061291;28;20599;-57
2021/09/15 01:13:03;;;;;;;0.55;0.35;;;27.10;61.00;;;;;;5062237;28;20308;-57
2021/09/15 01:15:45;;;;;;;0.40;0.10;;;27.00;60.90;;;;;;5061377;28;20088;-56
2021/09/15 01:18:31;;;;;;;0.88;0.75;;;27.00;61.00;;;;;;5047731;28;23324;-57
2021/09/15 01:21:46;;;;;;;0.90;0.35;;;27.00;61.00;;;;;;5014061;28;20087;-57
2021/09/15 01:24:29;;;;;;;0.90;0.20;;;27.00;61.00;;;;;;5022840;28;20610;-57
2021/09/15 01:27:33;;;;;;;0.82;0.10;;;27.00;61.10;;;;;;5024368;28;20050;-57
2021/09/15 01:30:21;;;;;;;2.55;0.35;;;27.00;61.00;;;;;;5010549;28;20069;-58
2021/09/15 01:32:53;;;;;;;0.20;0.20;;;26.90;60.90;;;;;;5008178;28;20061;-58
2021/09/15 01:35:22;;;;;;;2.28;0.30;;;27.00;61.00;;;;;;5009807;28;20128;-58
2021/09/15 01:37:50;;;;;;;0.28;0.28;;;27.00;61.00;;;;;;5007763;28;20046;-57
2021/09/15 01:40:18;;;;;;;0.30;0.20;;;26.90;60.90;;;;;;5000553;28;20057;-58
2021/09/15 01:42:45;;;;;;;0.60;0.35;;;26.90;60.90;;;;;;4996949;28;20041;-57
2021/09/15 01:45:13;;;;;;;0.65;0.28;;;27.00;61.00;;;;;;5008330;28;20470;-57
2021/09/15 01:47:42;;;;;;;0.35;0.20;;;26.90;60.90;;;;;;5008138;28;20060;-55
2021/09/15 01:50:10;;;;;;;1.85;0.35;;;26.90;60.90;;;;;;5008800;28;20084;-57
2021/09/15 01:52:38;;;;;;;1.05;0.20;;;27.00;60.90;;;;;;5040019;28;20089;-45
2021/09/15 01:55:22;;;;;;;1.95;0.17;;;27.00;60.90;;;;;;5055638;28;20041;-57
2021/09/15 01:57:53;;;;;;;1.58;0.20;;;27.00;60.90;;;;;;5061135;28;20347;-58
2021/09/15 02:00:39;;;;;;;0.22;0.22;;;26.90;60.80;;;;;;5054796;28;20098;-58
2021/09/15 02:03:24;;;;;;;1.38;0.10;;;26.90;60.90;;;;;;5082142;28;20119;-58
2021/09/15 02:06:10;;;;;;;;;;;26.90;60.90;;;;;;5059027;28;20151;-55
2021/09/15 02:08:41;;;;;;;0.80;0.22;;;26.80;60.80;;;;;;5058620;28;19931;-58
2021/09/15 02:11:25;;;;;;;1.08;0.35;;;26.80;61.00;;;;;;5045048;28;20428;-55
2021/09/15 02:13:53;;;;;;;1.40;0.20;;;26.90;61.00;;;;;;5053882;28;20041;-56
2021/09/15 02:16:20;;;;;;;0.73;0.10;;;26.90;61.00;;;;;;5050302;28;20083;-56
2021/09/15 02:18:49;;;;;;;1.23;0.30;;;26.90;60.90;;;;;;5049013;28;20048;-56
2021/09/15 02:21:22;;;;;;;0.10;0.10;;;26.90;60.90;;;;;;5049045;28;20056;-57
2021/09/15 02:24:17;;;;;;;0.30;0.15;;;26.90;60.90;;;;;;5050854;28;20041;-56
2021/09/15 02:27:01;;;;;;;0.35;0.22;;;26.90;60.90;;;;;;5063983;28;20566;-55
2021/09/15 02:29:31;;;;;;;0.10;0.10;;;26.90;60.90;;;;;;5047266;28;20036;-56
2021/09/15 02:32:27;;;;;;;0.30;0.30;;;26.90;60.90;;;;;;5051034;28;20041;-56
2021/09/15 02:35:17;;;;;;;0.95;0.10;;;26.80;60.80;;;;;;5004648;28;20484;-57
2021/09/15 02:38:05;;;;;;;1.33;0.20;;;26.80;60.80;;;;;;5004001;28;20054;-57
2021/09/15 02:40:50;;;;;;;1.10;0.10;;;26.80;60.80;;;;;;5007448;28;20304;-57
2021/09/15 02:43:43;;;;;;;0.30;0.20;;;26.80;60.80;;;;;;4949349;28;20051;-57
2021/09/15 02:46:22;;;;;;;3.97;0.22;;;26.80;60.80;;;;;;4950692;28;20101;-57
2021/09/15 02:49:06;;;;;;;0.75;0.30;;;26.80;60.80;;;;;;4949052;29;20575;-57
2021/09/15 02:51:51;;;;;;;0.30;0.10;;;26.80;60.80;;;;;;4955410;28;20081;-57
2021/09/15 02:54:24;;;;;;;0.60;0.10;;;26.80;60.80;;;;;;4949361;29;20150;-58
2021/09/15 02:57:07;;;;;;;0.52;0.20;;;26.80;60.80;;;;;;4949114;29;20126;-57
2021/09/15 02:59:46;;;;;;;3.40;0.30;;;26.80;60.80;;;;;;4946774;29;20051;-57
2021/09/15 03:02:25;;;;;;;0.85;0.10;;;26.80;60.80;;;;;;4948970;29;20055;-57
2021/09/15 03:05:21;;;;;;;1.00;0.13;;;26.80;60.70;;;;;;4947231;28;20048;-57
2021/09/15 03:08:26;;;;;;;1.45;0.30;;;26.80;60.70;;;;;;4950328;29;20314;-57
2021/09/15 03:10:53;;;;;;;0.40;0.40;;;26.80;60.80;;;;;;4941137;28;20638;-57
2021/09/15 03:13:21;;;;;;;0.43;0.40;;;26.80;60.70;;;;;;5014187;28;20046;-57
2021/09/15 03:15:49;;;;;;;0.20;0.20;;;26.80;60.70;;;;;;5026475;28;20049;-57
2021/09/15 03:18:16;;;;;;;1.08;0.20;;;26.80;60.70;;;;;;4995676;28;20599;-55
2021/09/15 03:20:43;;;;;;;0.28;0.28;;;26.80;60.70;;;;;;5021579;28;20079;-57
2021/09/15 03:23:10;;;;;;;0.30;0.30;;;26.80;60.70;;;;;;5052290;28;20138;-57
2021/09/15 03:25:38;;;;;;;1.20;0.15;;;26.80;60.70;;;;;;5057527;28;20036;-56
2021/09/15 03:28:06;;;;;;;0.47;0.17;;;26.80;60.70;;;;;;5060399;28;20075;-57
2021/09/15 03:30:33;;;;;;;1.85;0.20;;;26.80;60.60;;;;;;5052519;28;20041;-57
2021/09/15 03:33:01;;;;;;;0.40;0.10;;;26.80;60.60;;;;;;5052245;28;21021;-57
2021/09/15 03:35:29;;;;;;;0.50;0.50;;;26.80;60.60;;;;;;5054511;28;20078;-56
2021/09/15 03:37:56;;;;;;;0.10;0.10;;;26.80;60.60;;;;;;5057625;28;20580;-57
2021/09/15 03:40:23;;;;;;;0.47;0.15;;;26.80;60.60;;;;;;5061647;28;20115;-54
2021/09/15 03:42:51;;;;;;;0.25;0.25;;;26.80;60.60;;;;;;5056450;28;20052;-55
2021/09/15 03:45:18;;;;;;;1.58;0.30;;;26.80;60.60;;;;;;5053175;28;20079;-56
2021/09/15 03:47:45;;;;;;;1.55;0.30;;;26.80;60.60;;;;;;5048508;28;20049;-57
2021/09/15 03:50:15;;;;;;;0.30;0.20;;;26.80;60.60;;;;;;5051286;28;20049;-56
2021/09/15 03:52:44;;;;;;;0.45;0.20;;;26.80;60.70;;;;;;5043899;28;20528;-57
2021/09/15 03:55:11;;;;;;;0.30;0.20;;;26.80;60.60;;;;;;5061925;28;20053;-56
2021/09/15 03:57:38;;;;;;;0.20;0.10;;;26.80;60.70;;;;;;5064956;28;20041;-57
2021/09/15 04:00:07;;;;;;;0.22;0.20;;;26.80;60.60;;;;;;5050994;28;20036;-57
2021/09/15 04:02:39;;;;;;;0.40;0.20;;;26.80;60.70;;;;;;5066115;28;20446;-55
2021/09/15 04:05:11;;;;;;;0.75;0.15;;;26.70;60.60;;;;;;5055218;28;20136;-58
2021/09/15 04:07:40;;;;;;;0.65;0.20;;;26.70;60.60;;;;;;5062249;28;20839;-58
2021/09/15 04:10:08;;;;;;;0.43;0.10;;;26.80;60.70;;;;;;5064058;28;20033;-57
2021/09/15 04:12:35;;;;;;;0.73;0.57;;;26.80;60.70;;;;;;5050237;28;20114;-57
2021/09/15 04:15:02;;;;;;;1.42;0.10;;;26.70;60.60;;;;;;5041373;28;20416;-57
2021/09/15 04:17:29;;;;;;;1.65;0.20;;;26.80;60.70;;;;;;5052337;28;20068;-55
2021/09/15 04:19:56;;;;;;;1.75;0.30;;;26.80;60.70;;;;;;5052933;28;20046;-58
2021/09/15 04:22:23;;;;;;;0.50;0.22;;;26.80;60.70;;;;;;5061999;28;20047;-57
2021/09/15 04:33:08;;;;;;;0.75;0.20;;;26.70;60.70;;;;;;5050405;28;20071;-57
2021/09/15 04:35:35;;;;;;;2.97;0.43;;;26.70;60.70;;;;;;5055841;28;20102;-57
2021/09/15 04:38:02;;;;;;;0.32;0.10;;;26.70;60.70;;;;;;5049657;28;20037;-57
2021/09/15 04:40:31;;;;;;;0.20;0.20;;;26.70;60.70;;;;;;5054501;28;20428;-57
2021/09/15 04:42:58;;;;;;;1.00;0.30;;;26.70;60.70;;;;;;5061081;28;20080;-57
2021/09/15 04:45:26;;;;;;;0.68;0.30;;;26.70;60.70;;;;;;5060065;28;20044;-57
2021/09/15 04:47:54;;;;;;;0.20;0.20;;;26.70;60.70;;;;;;5049642;28;20048;-58
2021/09/15 04:50:22;;;;;;;1.80;0.30;;;26.70;60.70;;;;;;5049945;28;20429;-57
2021/09/15 04:52:50;;;;;;;0.82;0.20;;;26.70;60.70;;;;;;5054543;28;20119;-57
2021/09/15 04:55:17;;;;;;;0.30;0.20;;;26.70;60.70;;;;;;5056697;28;20133;-57
2021/09/15 04:57:46;;;;;;;0.30;0.10;;;26.70;60.70;;;;;;5065563;28;20121;-57
2021/09/15 05:00:13;;;;;;;0.93;0.17;;;26.70;61.20;;;;;;5050931;28;20036;-57
2021/09/15 05:02:51;;;;;;;1.55;0.63;;;26.70;60.70;;;;;;5047116;28;20060;-57
2021/09/15 05:05:36;;;;;;;0.80;0.17;;;26.70;60.70;;;;;;5063043;28;20111;-58
2021/09/15 05:08:04;;;;;;;0.50;0.20;;;26.70;60.70;;;;;;5064727;28;20123;-57
2021/09/15 05:10:33;;;;;;;1.48;1.38;;;26.70;60.80;;;;;;5065879;28;20040;-56
2021/09/15 05:13:02;;;;;;;0.73;0.20;;;26.70;60.80;;;;;;5059453;28;20106;-57
2021/09/15 05:15:29;;;;;;;2.05;0.40;;;26.70;60.80;;;;;;5049937;28;20116;-56
2021/09/15 05:18:00;;;;;;;1.25;0.17;;;26.70;61.30;;;;;;5047920;28;20798;-57
2021/09/15 05:20:29;;;;;;;0.30;0.20;;;26.70;61.30;;;;;;5048001;28;20048;-59
2021/09/15 05:22:57;;;;;;;0.57;0.20;;;26.70;60.80;;;;;;5053067;28;20053;-55
2021/09/15 05:25:25;;;;;;;1.15;0.20;;;26.70;60.80;;;;;;5052606;28;20530;-58
2021/09/15 05:27:54;;;;;;;0.75;0.40;;;26.70;60.80;;;;;;5059013;28;20134;-58
2021/09/15 05:30:24;;;;;;;0.35;0.13;;;26.70;61.30;;;;;;5032893;28;20556;-56
2021/09/15 05:32:56;;;;;;;0.32;0.20;;;26.60;60.70;;;;;;5047951;28;20040;-58
2021/09/15 05:35:24;;;;;;;0.20;0.10;;;26.70;60.80;;;;;;5057369;28;20045;-58
2021/09/15 05:37:55;;;;;;;0.40;0.13;;;26.70;60.80;;;;;;5057438;28;20069;-57
2021/09/15 05:40:22;;;;;;;1.08;0.28;;;26.70;60.80;;;;;;5055468;28;20037;-58
2021/09/15 05:42:50;;;;;;;0.55;0.20;;;26.70;60.80;;;;;;5054041;28;20148;-58
2021/09/15 05:45:20;;;;;;;0.95;0.30;;;26.70;60.80;;;;;;5049284;28;20614;-58
2021/09/15 05:47:49;;;;;;;0.60;0.20;;;26.70;60.80;;;;;;5048620;28;20730;-58
2021/09/15 05:50:16;;;;;;;1.42;0.10;;;26.70;60.80;;;;;;5050866;28;20098;-58
2021/09/15 05:52:46;;;;;;;0.30;0.22;;;26.60;60.80;;;;;;5049449;28;20048;-56
2021/09/15 05:55:15;;;;;;;1.75;0.20;;;26.70;60.80;;;;;;5049906;28;20045;-56
2021/09/15 05:57:42;;;;;;;0.55;0.30;;;26.70;61.40;;;;;;5061144;28;20126;-57
2021/09/15 06:00:11;;;;;;;2.50;0.47;;;26.60;60.80;;;;;;5063604;28;20056;-56
2021/09/15 06:02:42;;;;;;;0.40;0.30;;;26.60;60.80;;;;;;5047586;28;20033;-56
2021/09/15 06:05:30;;;;;;;0.50;0.15;;;26.60;60.80;;;;;;5058912;28;20495;-56
2021/09/15 06:07:58;;;;;;;1.33;0.20;;;26.70;60.90;;;;;;5055563;28;20102;-57
2021/09/15 06:10:25;;;;;;;0.95;0.20;;;26.60;60.80;;;;;;5056809;28;20124;-56
2021/09/15 06:12:52;;;;;;;1.65;0.10;;;26.60;60.80;;;;;;5049997;28;20045;-56
2021/09/15 06:15:19;;;;;;;0.93;0.20;;;26.70;60.90;;;;;;5053493;28;20048;-56
2021/09/15 06:17:50;;;;;;;0.30;0.10;;;26.70;60.90;;;;;;5084095;28;20082;-56
2021/09/15 06:20:20;;;;;;;0.68;0.15;;;26.60;60.80;;;;;;5052717;28;20037;-57
2021/09/15 06:23:26;;;;;;;1.05;0.17;;;26.60;60.80;;;;;;5023977;28;20045;-57
2021/09/15 06:26:01;;;;;;;0.52;0.40;;;26.60;60.90;;;;;;5068420;28;20513;-57
2021/09/15 06:28:29;;;;;;;2.97;0.43;;;26.60;60.90;;;;;;5058816;28;20159;-58
2021/09/15 06:30:58;;;;;;;0.95;0.20;;;26.60;60.90;;;;;;5054929;28;20059;-57
2021/09/15 06:33:25;;;;;;;0.55;0.20;;;26.60;60.90;;;;;;5053403;28;20119;-56
2021/09/15 06:35:52;;;;;;;0.40;0.17;;;26.60;60.80;;;;;;5050041;28;20128;-56
2021/09/15 06:38:19;;;;;;;0.50;0.20;;;26.60;60.90;;;;;;5053348;28;20103;-56
2021/09/15 06:40:48;;;;;;;2.15;0.47;;;26.60;60.80;;;;;;5057123;28;20049;-56
2021/09/15 06:43:15;;;;;;;1.30;0.40;;;26.70;60.90;;;;;;5053237;28;20049;-56
2021/09/15 06:45:43;;;;;;;0.57;0.15;;;26.70;60.90;;;;;;5054535;28;20033;-58
2021/09/15 06:48:10;;;;;;;7.25;0.60;;;26.60;60.90;;;;;;5054146;28;20036;-57
2021/09/15 06:50:37;;;;;;;0.95;0.30;;;26.60;60.90;;;;;;5051452;28;20428;-57
2021/09/15 06:53:04;;;;;;;0.45;0.20;;;26.70;60.90;;;;;;5049858;28;20087;-55
2021/09/15 06:55:31;;;;;;;0.98;0.47;;;26.70;60.90;;;;;;5057429;28;20147;-57
2021/09/15 06:58:00;;;;;;;0.22;0.22;;;26.70;60.90;;;;;;5064197;28;20638;-57
2021/09/15 07:00:27;;;;;;;0.47;0.20;;;26.70;60.90;;;;;;5052929;28;20123;-59
2021/09/15 07:02:55;;;;;;;0.50;0.30;;;26.70;60.90;;;;;;5066719;28;20033;-56
2021/09/15 07:05:22;;;;;;;1.08;0.30;;;26.70;60.90;;;;;;5055793;28;20040;-56
2021/09/15 07:07:49;;;;;;;0.25;0.20;;;26.70;60.90;;;;;;5053856;28;20051;-56
2021/09/15 07:10:17;;;;;;;1.17;0.50;;;26.70;60.90;;;;;;5055667;28;20037;-56
2021/09/15 07:12:47;;;;;;;1.90;0.30;;;26.60;60.80;;;;;;5064760;28;20052;-58
2021/09/15 07:15:17;;;;;;;0.93;0.10;;;26.60;60.80;;;;;;5052998;28;20452;-55
2021/09/15 07:17:45;;;;;;;0.38;0.20;;;26.70;60.90;;;;;;5069005;28;20829;-56
2021/09/15 07:20:13;;;;;;;0.95;0.50;;;26.70;60.90;;;;;;5055285;28;20463;-56
2021/09/15 07:22:48;;;;;;;3.30;0.50;;;26.70;60.90;;;;;;5055476;28;20045;-56
2021/09/15 07:25:16;;;;;;;1.67;0.17;;;26.70;60.90;;;;;;5054292;28;20037;-57
2021/09/15 07:27:43;;;;;;;0.65;0.30;;;26.60;60.80;;;;;;5060664;28;20044;-56
2021/09/15 07:30:12;;;;;;;0.85;0.52;;;26.70;60.90;;;;;;5067209;28;20040;-56
2021/09/15 07:32:41;;;;;;;1.08;0.82;;;26.70;60.90;;;;;;5067110;28;20520;-58
2021/09/15 07:35:10;;;;;;;0.70;0.22;;;26.70;60.90;;;;;;5064339;28;20426;-58
2021/09/15 07:37:37;;;;;;;0.20;0.20;;;26.70;60.90;;;;;;5058509;28;20041;-58
2021/09/15 07:40:05;;;;;;;0.68;0.32;;;26.70;60.90;;;;;;5054489;28;20115;-58
2021/09/15 07:42:32;;;;;;;2.35;0.30;;;26.70;60.90;;;;;;5065956;28;20123;-55
2021/09/15 07:45:00;;;;;;;2.05;0.20;;;26.60;60.80;;;;;;5051074;28;20049;-56
2021/09/15 07:47:27;;;;;;;1.15;0.63;;;26.70;60.90;;;;;;5068776;28;20087;-56
2021/09/15 07:49:55;;;;;;;0.40;0.30;;;26.70;60.90;;;;;;5055991;28;20386;-56
2021/09/15 07:52:23;;;;;;;0.30;0.30;;;26.70;60.90;;;;;;5057563;28;20143;-57
2021/09/15 07:54:50;;;;;;;1.20;0.20;;;26.70;60.90;;;;;;5062121;28;20056;-56
2021/09/15 07:57:20;;;;;;;0.25;0.25;;;26.70;60.90;;;;;;5066095;28;20048;-55
2021/09/15 07:59:47;;;;;;;1.83;0.55;;;26.70;60.90;;;;;;5065755;28;20051;-59
2021/09/15 08:02:14;;;;;;;1.40;0.40;;;26.70;60.90;;;;;;5064086;28;20062;-58
2021/09/15 08:04:41;;;;;;;3.08;0.50;;;26.70;60.90;;;;;;5061436;28;20041;-58
2021/09/15 08:07:10;;;;;;;1.20;0.35;;;26.70;60.90;;;;;;5059722;28;20645;-58
2021/09/15 08:09:37;;;;;;;2.40;0.35;;;26.70;60.90;;;;;;5062991;28;20060;-58
2021/09/15 08:12:05;;;;;;;0.82;0.25;;;26.60;60.90;;;;;;5059258;28;20037;-58
2021/09/15 08:14:35;;;;;;;1.33;0.32;;;26.70;60.90;;;;;;5065351;28;20784;-58
2021/09/15 08:17:03;;;;;;;1.10;0.35;;;26.60;60.90;;;;;;5064318;28;20048;-58
2021/09/15 08:19:30;;;;;;;1.52;0.32;;;26.70;61.00;;;;;;5066543;28;20044;-58
2021/09/15 08:21:58;;;;;;;1.75;0.40;;;26.60;61.50;;;;;;5059314;28;20513;-58
2021/09/15 08:24:26;;;;;;;1.85;0.38;;;26.70;61.00;;;;;;5049920;28;20552;-58
2021/09/15 08:26:54;;;;;;;0.63;0.20;;;26.60;61.00;;;;;;5061470;28;20060;-57
2021/09/15 08:29:21;;;;;;;1.23;0.17;;;26.70;61.10;;;;;;5049669;28;20053;-57
2021/09/15 08:31:48;;;;;;;1.20;0.45;;;26.60;61.00;;;;;;5048197;28;20070;-57
2021/09/15 08:34:15;;;;;;;0.50;0.50;;;26.70;61.10;;;;;;5052607;28;20474;-58
2021/09/15 08:36:43;;;;;;;0.98;0.20;;;26.70;61.10;;;;;;5060780;28;20099;-57
2021/09/15 08:39:10;;;;;;;4.05;1.00;;;26.70;61.10;;;;;;5064945;28;20128;-57
2021/09/15 08:41:39;;;;;;;1.42;0.30;;;26.60;61.00;;;;;;5059656;28;20118;-57
2021/09/15 08:44:06;;;;;;;0.82;0.55;;;26.70;61.10;;;;;;5062489;28;20141;-58
2021/09/15 08:46:35;;;;;;;1.15;0.40;;;26.70;61.10;;;;;;5060392;28;20421;-57
2021/09/15 08:49:02;;;;;;;0.55;0.25;;;26.70;61.20;;;;;;5061058;28;20814;-59
2021/09/15 08:51:30;;;;;;;1.98;0.30;;;26.70;61.10;;;;;;5062224;28;20533;-57
2021/09/15 08:53:57;;;;;;;0.68;0.50;;;26.60;61.10;;;;;;5063906;28;20651;-57
2021/09/15 08:56:27;;;;;;;0.20;0.20;;;26.60;61.10;;;;;;5061891;28;20047;-57
2021/09/15 08:58:56;;;;;;;1.17;0.20;;;26.70;61.20;;;;;;5054267;28;20127;-57
2021/09/15 09:01:25;;;;;;;0.60;0.30;;;26.70;61.20;;;;;;5060678;28;20036;-58
2021/09/15 09:03:55;;;;;;;2.20;0.30;;;26.70;61.20;;;;;;5061244;28;20057;-57
2021/09/15 09:06:24;;;;;;;1.83;0.20;;;26.70;61.20;;;;;;5049725;28;20052;-57
2021/09/15 09:08:55;;;;;;;1.08;0.32;;;26.70;61.20;;;;;;5063488;28;20079;-56
2021/09/15 09:11:25;;;;;;;0.50;0.10;;;26.70;61.20;;;;;;5053483;28;20460;-57
2021/09/15 09:13:56;;;;;;;1.27;0.20;;;26.70;61.20;;;;;;5051921;28;20163;-57
2021/09/15 09:16:38;;;;;;;0.40;0.25;;;26.70;61.70;;;;;;5058559;28;20097;-58
2021/09/15 09:19:08;;;;;;;0.25;0.20;;;26.70;61.10;;;;;;5057575;28;20085;-57
2021/09/15 09:21:37;;;;;;;1.63;0.30;;;26.70;61.20;;;;;;5049294;28;20060;-59
2021/09/15 09:24:10;;;;;;;2.03;0.30;;;26.70;61.20;;;;;;5066800;28;20048;-57
2021/09/15 09:26:48;;;;;;;0.30;0.30;;;26.70;61.20;;;;;;5065535;28;20112;-56
2021/09/15 09:29:18;;;;;;;1.23;0.73;;;26.70;61.20;;;;;;5061624;28;20040;-58
2021/09/15 09:31:58;;;;;;;1.45;0.93;;;26.80;61.20;;;;;;5057178;28;20568;-58
2021/09/15 09:34:26;;;;;;;0.20;0.20;;;26.80;61.20;;;;;;5051151;28;20041;-58
2021/09/15 09:37:02;;;;;;;0.20;0.20;;;26.80;61.80;;;;;;5051436;28;20086;-57
2021/09/15 09:39:40;;;;;;;0.73;0.20;;;26.80;61.20;;;;;;5048719;28;20095;-55
2021/09/15 09:42:35;;;;;;;0.85;0.10;;;26.80;61.20;;;;;;5065930;28;20045;-57
2021/09/15 09:45:15;;;;;;;1.27;0.25;;;26.80;61.10;;;;;;5097139;28;20616;-57
2021/09/15 09:47:45;;;;;;;1.20;0.20;;;26.80;61.10;;;;;;5047635;28;20041;-57
2021/09/15 09:50:15;;;;;;;0.30;0.20;;;26.80;61.10;;;;;;5050678;28;20457;-58
2021/09/15 09:53:00;;;;;;;0.25;0.20;;;26.90;61.10;;;;;;5051442;28;20063;-57
2021/09/15 09:55:29;;;;;;;0.30;0.15;;;26.90;61.10;;;;;;5055234;28;20041;-57
2021/09/15 09:57:57;;;;;;;0.63;0.20;;;26.90;61.10;;;;;;5060878;28;20052;-57
2021/09/15 10:00:26;;;;;;;0.85;0.10;;;26.90;61.00;;;;;;5062809;28;20051;-57
2021/09/15 10:02:54;;;;;;;1.98;0.25;;;26.90;61.00;;;;;;5064770;28;20041;-57
2021/09/15 10:05:22;;;;;;;1.13;0.10;;;26.90;60.90;;;;;;5052658;28;20645;-57
2021/09/15 10:07:51;;;;;;;0.30;0.10;;;26.90;61.00;;;;;;5052620;28;20505;-57
2021/09/15 10:10:20;;;;;;;0.20;0.10;;;26.90;60.90;;;;;;5053850;28;20044;-59
2021/09/15 10:12:49;;;;;;;0.15;0.10;;;26.90;60.90;;;;;;5056902;28;20498;-58
2021/09/15 10:15:17;;;;;;;0.43;0.40;;;26.90;60.90;;;;;;5047140;28;20079;-58
2021/09/15 10:17:49;;;;;;;0.85;0.10;;;26.90;60.90;;;;;;5062654;28;20048;-57
2021/09/15 10:20:17;;;;;;;0.50;0.10;;;27.00;61.00;;;;;;5060909;28;20064;-58
2021/09/15 10:22:48;;;;;;;0.68;0.55;;;27.00;61.00;;;;;;5059943;28;20045;-57
2021/09/15 10:25:16;;;;;;;0.75;0.22;;;27.00;61.00;;;;;;5060315;28;20041;-57
2021/09/15 10:28:01;;;;;;;0.70;0.20;;;27.00;60.90;;;;;;5060112;28;20037;-58
2021/09/15 10:30:46;;;;;;;0.50;0.10;;;27.00;60.90;;;;;;5049167;28;20103;-57
2021/09/15 10:33:47;;;;;;;0.93;0.20;;;27.00;60.90;;;;;;5064092;28;20041;-57
2021/09/15 10:36:40;;;;;;;2.00;0.20;;;27.00;60.90;;;;;;5043977;28;20049;-57
2021/09/15 10:39:09;;;;;;;0.45;0.10;;;27.00;60.90;;;;;;5047638;28;20041;-57
2021/09/15 10:41:39;;;;;;;0.32;0.32;;;27.00;60.90;;;;;;5054457;28;20830;-58
2021/09/15 10:44:07;;;;;;;2.67;0.30;;;27.00;60.90;;;;;;5052129;28;20049;-57
2021/09/15 10:46:35;;;;;;;1.02;0.20;;;27.10;60.90;;;;;;5052788;28;20040;-58
2021/09/15 10:49:45;;;;;;;0.52;0.20;;;27.10;60.90;;;;;;5059694;28;20584;-57
2021/09/15 10:52:46;;;;;;;0.85;0.60;;;27.20;60.90;;;;;;5057517;28;20148;-56
2021/09/15 10:55:21;;;;;;;1.05;0.22;;;27.20;60.80;;;;;;5051242;28;20524;-57
2021/09/15 10:57:49;;;;;;;0.30;0.17;;;27.20;60.90;;;;;;5059747;28;20448;-58
2021/09/15 11:00:26;;;;;;;0.20;0.15;;;27.20;60.90;;;;;;5060225;28;20052;-58
2021/09/15 11:02:56;;;;;;;1.08;0.25;;;27.20;60.80;;;;;;5052379;28;20041;-57
2021/09/15 11:05:44;;;;;;;0.90;0.20;;;27.20;60.80;;;;;;5059252;28;20448;-57
2021/09/15 11:08:31;;;;;;;0.32;0.20;;;27.30;60.80;;;;;;5055000;28;20060;-57
2021/09/15 11:10:59;;;;;;;1.02;0.20;;;27.20;60.80;;;;;;5062155;28;20058;-57
2021/09/15 11:13:51;;;;;;;0.38;0.35;;;27.20;60.80;;;;;;5059222;28;20125;-57
2021/09/15 11:16:35;;;;;;;3.60;0.30;;;27.30;60.70;;;;;;5053647;28;20049;-57
2021/09/15 11:19:06;;;;;;;0.90;0.85;;;27.30;60.80;;;;;;5086621;28;20132;-57
2021/09/15 11:21:35;;;;;;;0.32;0.30;;;27.30;60.80;;;;;;5066212;28;20045;-57
2021/09/15 11:24:10;;;;;;;1.05;0.40;;;27.30;60.70;;;;;;5052235;28;20144;-57
2021/09/15 11:26:41;;;;;;;0.60;0.20;;;27.40;60.70;;;;;;5066532;28;20044;-56
2021/09/15 11:29:08;;;;;;;0.50;0.40;;;27.40;60.70;;;;;;5050075;28;20049;-56
2021/09/15 11:31:37;;;;;;;0.30;0.10;;;27.40;60.60;;;;;;5053873;28;20037;-57
2021/09/15 11:34:06;;;;;;;0.77;0.43;;;27.50;60.60;;;;;;5053220;28;20045;-58
2021/09/15 11:36:34;;;;;;;2.00;0.30;;;27.50;60.50;;;;;;5053454;28;20068;-58
2021/09/15 11:39:03;;;;;;;1.10;0.45;;;27.50;60.50;;;;;;5049426;28;20041;-57
2021/09/15 11:41:30;;;;;;;6.55;0.45;;;27.50;60.40;;;;;;5055075;28;20123;-56
2021/09/15 11:43:58;;;;;;;0.30;0.30;;;27.60;60.50;;;;;;5052495;28;20111;-55
2021/09/15 11:46:33;;;;;;;0.93;0.25;;;27.60;60.30;;;;;;5056274;28;20036;-58
2021/09/15 11:49:00;;;;;;;0.30;0.15;;;27.70;60.30;;;;;;5062485;28;20451;-58
2021/09/15 11:51:28;;;;;;;1.20;0.30;;;27.60;60.20;;;;;;5052790;28;20041;-57
2021/09/15 11:53:58;;;;;;;1.15;0.20;;;27.60;60.20;;;;;;5050636;28;20130;-58
2021/09/15 11:56:32;;;;;;;0.55;0.13;;;27.70;60.20;;;;;;5065693;28;20505;-59
2021/09/15 11:58:59;;;;;;;1.75;0.25;;;27.70;60.20;;;;;;5054106;28;20041;-58
2021/09/15 12:01:28;;;;;;;1.35;0.13;;;27.60;60.10;;;;;;5053057;28;20047;-57
2021/09/15 12:03:56;;;;;;;0.95;0.20;;;27.70;60.20;;;;;;5052486;28;20049;-57
2021/09/15 12:06:24;;;;;;;2.88;0.30;;;27.70;60.20;;;;;;5068760;28;20040;-57
2021/09/15 12:08:52;;;;;;;0.30;0.13;;;27.70;60.20;;;;;;5052759;28;20140;-57
2021/09/15 12:11:20;;;;;;;0.75;0.30;;;27.70;60.20;;;;;;5054295;28;20037;-57
2021/09/15 12:13:54;;;;;;;1.08;0.25;;;27.70;60.10;;;;;;5055134;28;20071;-55
2021/09/15 12:16:28;;;;;;;0.80;0.10;;;27.70;60.20;;;;;;5052729;28;20102;-57
2021/09/15 12:18:56;;;;;;;0.70;0.40;;;27.80;60.20;;;;;;5062311;28;20040;-57
2021/09/15 12:21:25;;;;;;;2.17;0.30;;;27.70;60.20;;;;;;5054306;28;20037;-57
2021/09/15 12:24:01;;;;;;;1.48;0.65;;;27.70;60.30;;;;;;5052224;28;20047;-58
2021/09/15 12:26:29;;;;;;;0.45;0.20;;;27.70;60.30;;;;;;5062331;28;20574;-57
2021/09/15 12:29:04;;;;;;;0.98;0.35;;;27.70;60.30;;;;;;5061413;28;20037;-57
2021/09/15 12:31:45;;;;;;;0.47;0.30;;;27.70;60.30;;;;;;5057132;28;20045;-57
2021/09/15 12:34:14;;;;;;;1.88;0.43;;;27.70;60.40;;;;;;5051948;28;20037;-57
2021/09/15 12:36:41;;;;;;;1.27;0.20;;;27.60;60.30;;;;;;5052232;28;20072;-58
2021/09/15 12:39:14;;;;;;;0.50;0.50;;;27.60;60.40;;;;;;5048312;28;20140;-58
2021/09/15 12:41:54;;;;;;;2.05;0.40;;;27.60;60.40;;;;;;5063856;28;20043;-59
2021/09/15 12:44:26;;;;;;;0.20;0.10;;;27.60;60.50;;;;;;5053740;28;20053;-59
2021/09/15 12:46:55;;;;;;;0.85;0.32;;;27.60;61.10;;;;;;5057996;28;20049;-58
2021/09/15 12:49:30;;;;;;;1.48;0.30;;;27.60;60.60;;;;;;5057891;28;20509;-59
2021/09/15 12:52:07;;;;;;;1.73;0.52;;;27.60;60.60;;;;;;5052318;28;20055;-59
2021/09/15 12:54:35;;;;;;;0.55;0.20;;;27.60;60.60;;;;;;5055392;28;20119;-59
2021/09/15 12:57:16;;;;;;;1.52;0.20;;;27.50;60.60;;;;;;5066432;28;20090;-56
2021/09/15 12:59:46;;;;;;;0.25;0.22;;;27.60;60.70;;;;;;5064682;28;20420;-58
2021/09/15 13:02:28;;;;;;;0.68;0.30;;;27.50;60.70;;;;;;5059321;28;20070;-57
2021/09/15 13:04:56;;;;;;;0.65;0.50;;;27.50;60.70;;;;;;5057538;28;20043;-57
2021/09/15 13:07:24;;;;;;;0.82;0.28;;;27.50;60.80;;;;;;5057840;28;20041;-57
2021/09/15 13:09:51;;;;;;;1.30;0.20;;;27.50;60.80;;;;;;5051598;28;20045;-57
2021/09/15 13:12:21;;;;;;;1.42;0.30;;;27.50;60.80;;;;;;5058982;28;20123;-58
2021/09/15 13:14:51;;;;;;;0.40;0.40;;;27.50;60.80;;;;;;5051712;28;20091;-58
2021/09/15 13:17:19;;;;;;;0.50;0.20;;;27.50;60.80;;;;;;5050974;28;20077;-58
2021/09/15 13:19:47;;;;;;;0.20;0.13;;;27.50;60.70;;;;;;5051386;28;20144;-57